sensor_id;sensor_type;location;lat;lon;timestamp;pressure;altitude;pressure_sealevel;temperature;humidity
65227;BME280;51805;49.012;12.104;2023-06-14T00:00:51;97382.78;;;24.23;29.05
65227;BME280;51805;49.012;12.104;2023-06-14T00:03:17;97384.78;;;24.31;29.05
65227;BME280;51805;49.012;12.104;2023-06-14T00:05:42;97390.94;;;24.23;29.27
65227;BME280;51805;49.012;12.104;2023-06-14T00:08:08;97390.53;;;24.29;29.33
65227;BME280;51805;49.012;12.104;2023-06-14T00:10:34;97384.00;;;24.30;29.36
65227;BME280;51805;49.012;12.104;2023-06-14T00:13:00;97380.63;;;23.98;29.87
65227;BME280;51805;49.012;12.104;2023-06-14T00:15:25;97388.44;;;24.13;29.74
65227;BME280;51805;49.012;12.104;2023-06-14T00:17:50;97384.41;;;24.24;29.59
65227;BME280;51805;49.012;12.104;2023-06-14T00:20:15;97385.50;;;24.23;29.82
65227;BME280;51805;49.012;12.104;2023-06-14T00:22:41;97385.63;;;24.18;29.71
65227;BME280;51805;49.012;12.104;2023-06-14T00:25:06;97385.34;;;24.06;29.91
65227;BME280;51805;49.012;12.104;2023-06-14T00:27:32;97390.88;;;24.01;30.13
65227;BME280;51805;49.012;12.104;2023-06-14T00:29:57;97389.66;;;24.07;30.03
65227;BME280;51805;49.012;12.104;2023-06-14T00:32:22;97386.03;;;24.11;30.17
65227;BME280;51805;49.012;12.104;2023-06-14T00:34:47;97389.16;;;24.05;30.21
65227;BME280;51805;49.012;12.104;2023-06-14T00:37:13;97378.81;;;24.07;30.09
65227;BME280;51805;49.012;12.104;2023-06-14T00:39:38;97378.41;;;24.13;30.20
65227;BME280;51805;49.012;12.104;2023-06-14T00:42:04;97387.03;;;24.15;30.26
65227;BME280;51805;49.012;12.104;2023-06-14T00:44:29;97379.19;;;24.00;30.37
65227;BME280;51805;49.012;12.104;2023-06-14T00:46:54;97378.81;;;24.07;30.48
65227;BME280;51805;49.012;12.104;2023-06-14T00:49:20;97377.59;;;24.13;30.26
65227;BME280;51805;49.012;12.104;2023-06-14T00:51:45;97380.59;;;24.11;30.45
65227;BME280;51805;49.012;12.104;2023-06-14T00:54:10;97373.38;;;24.07;30.44
65227;BME280;51805;49.012;12.104;2023-06-14T00:56:36;97380.63;;;23.98;30.64
65227;BME280;51805;49.012;12.104;2023-06-14T00:59:03;97368.13;;;23.97;30.51
65227;BME280;51805;49.012;12.104;2023-06-14T01:01:29;97375.88;;;24.03;30.56
65227;BME280;51805;49.012;12.104;2023-06-14T01:03:54;97378.19;;;24.10;30.47
65227;BME280;51805;49.012;12.104;2023-06-14T01:09:27;97375.94;;;23.85;30.83
65227;BME280;51805;49.012;12.104;2023-06-14T01:12:11;97367.72;;;23.90;30.87
65227;BME280;51805;49.012;12.104;2023-06-14T01:14:38;97380.63;;;23.98;30.71
65227;BME280;51805;49.012;12.104;2023-06-14T01:17:05;97379.81;;;23.97;30.71
65227;BME280;51805;49.012;12.104;2023-06-14T01:19:32;97379.56;;;23.94;30.63
65227;BME280;51805;49.012;12.104;2023-06-14T01:22:00;97380.31;;;23.99;30.93
65227;BME280;51805;49.012;12.104;2023-06-14T01:24:26;97381.00;;;24.05;30.70
65227;BME280;51805;49.012;12.104;2023-06-14T01:26:54;97375.34;;;23.88;30.91
65227;BME280;51805;49.012;12.104;2023-06-14T01:29:20;97381.19;;;23.95;30.80
65227;BME280;51805;49.012;12.104;2023-06-14T01:31:47;97381.59;;;24.02;30.82
65227;BME280;51805;49.012;12.104;2023-06-14T01:34:12;97377.16;;;23.79;30.92
65227;BME280;51805;49.012;12.104;2023-06-14T01:36:40;97376.69;;;23.90;31.10
65227;BME280;51805;49.012;12.104;2023-06-14T01:39:06;97373.75;;;23.87;30.82
65227;BME280;51805;49.012;12.104;2023-06-14T01:41:32;97378.16;;;23.83;31.01
65227;BME280;51805;49.012;12.104;2023-06-14T01:43:59;97375.34;;;23.74;31.06
65227;BME280;51805;49.012;12.104;2023-06-14T01:46:26;97377.38;;;23.69;31.11
65227;BME280;51805;49.012;12.104;2023-06-14T01:48:51;97377.97;;;23.66;31.19
65227;BME280;51805;49.012;12.104;2023-06-14T01:51:16;97374.06;;;23.72;31.09
65227;BME280;51805;49.012;12.104;2023-06-14T01:53:42;97378.66;;;23.58;31.21
65227;BME280;51805;49.012;12.104;2023-06-14T01:56:07;97370.53;;;23.58;31.19
65227;BME280;51805;49.012;12.104;2023-06-14T01:58:32;97379.34;;;23.77;30.89
65227;BME280;51805;49.012;12.104;2023-06-14T02:00:58;97378.16;;;23.83;30.86
65227;BME280;51805;49.012;12.104;2023-06-14T02:03:23;97375.56;;;23.78;31.00
65227;BME280;51805;49.012;12.104;2023-06-14T02:05:48;97378.16;;;23.83;31.15
65227;BME280;51805;49.012;12.104;2023-06-14T02:08:14;97380.19;;;23.77;31.13
65227;BME280;51805;49.012;12.104;2023-06-14T02:10:39;97376.16;;;23.75;31.00
65227;BME280;51805;49.012;12.104;2023-06-14T02:13:04;97372.31;;;23.49;31.46
65227;BME280;51805;49.012;12.104;2023-06-14T02:15:29;97377.75;;;23.49;31.30
65227;BME280;51805;49.012;12.104;2023-06-14T02:17:55;97378.16;;;23.56;31.33
65227;BME280;51805;49.012;12.104;2023-06-14T02:20:20;97370.53;;;23.58;31.28
65227;BME280;51805;49.012;12.104;2023-06-14T02:22:45;97367.50;;;23.46;31.58
65227;BME280;51805;49.012;12.104;2023-06-14T02:25:11;97367.09;;;23.52;31.33
65227;BME280;51805;49.012;12.104;2023-06-14T02:27:36;97377.56;;;23.59;31.49
65227;BME280;51805;49.012;12.104;2023-06-14T02:30:02;97380.19;;;23.64;31.29
65227;BME280;51805;49.012;12.104;2023-06-14T02:32:27;97378.06;;;23.61;31.27
65227;BME280;51805;49.012;12.104;2023-06-14T02:34:53;97387.09;;;23.43;31.51
65227;BME280;51805;49.012;12.104;2023-06-14T02:37:19;97385.16;;;23.43;31.64
65227;BME280;51805;49.012;12.104;2023-06-14T02:39:44;97386.72;;;23.31;31.86
65227;BME280;51805;49.012;12.104;2023-06-14T02:42:09;97388.75;;;23.39;31.90
65227;BME280;51805;49.012;12.104;2023-06-14T02:44:35;97398.94;;;23.47;31.84
65227;BME280;51805;49.012;12.104;2023-06-14T02:47:00;97390.28;;;23.58;31.49
65227;BME280;51805;49.012;12.104;2023-06-14T02:49:25;97399.47;;;23.62;31.41
65227;BME280;51805;49.012;12.104;2023-06-14T02:51:51;97397.56;;;23.31;31.89
65227;BME280;51805;49.012;12.104;2023-06-14T02:54:16;97393.91;;;23.22;32.05
65227;BME280;51805;49.012;12.104;2023-06-14T02:56:41;97387.75;;;23.35;31.77
65227;BME280;51805;49.012;12.104;2023-06-14T02:59:07;97394.81;;;23.49;31.68
65227;BME280;51805;49.012;12.104;2023-06-14T03:01:32;97393.59;;;23.42;31.82
65227;BME280;51805;49.012;12.104;2023-06-14T03:03:58;97390.97;;;23.37;31.87
65227;BME280;51805;49.012;12.104;2023-06-14T03:06:23;97387.56;;;23.13;32.42
65227;BME280;51805;49.012;12.104;2023-06-14T03:08:48;97388.19;;;23.23;32.12
65227;BME280;51805;49.012;12.104;2023-06-14T03:11:13;97388.25;;;23.37;31.96
65227;BME280;51805;49.012;12.104;2023-06-14T03:13:39;97398.00;;;23.38;31.85
65227;BME280;51805;49.012;12.104;2023-06-14T03:16:04;97389.81;;;23.24;32.21
65227;BME280;51805;49.012;12.104;2023-06-14T03:18:30;97396.28;;;23.10;32.44
65227;BME280;51805;49.012;12.104;2023-06-14T03:20:55;97399.91;;;23.05;32.48
65227;BME280;51805;49.012;12.104;2023-06-14T03:23:20;97404.22;;;22.87;33.10
65227;BME280;51805;49.012;12.104;2023-06-14T03:25:46;97401.44;;;22.92;32.85
65227;BME280;51805;49.012;12.104;2023-06-14T03:28:11;97404.31;;;23.01;32.65
65227;BME280;51805;49.012;12.104;2023-06-14T03:30:36;97412.22;;;22.97;32.58
65227;BME280;51805;49.012;12.104;2023-06-14T03:33:02;97404.78;;;23.03;32.48
65227;BME280;51805;49.012;12.104;2023-06-14T03:35:28;97405.75;;;22.93;32.75
65227;BME280;51805;49.012;12.104;2023-06-14T03:37:53;97413.75;;;23.03;32.64
65227;BME280;51805;49.012;12.104;2023-06-14T03:40:19;97406.50;;;22.99;32.56
65227;BME280;51805;49.012;12.104;2023-06-14T03:42:44;97410.19;;;23.22;32.17
65227;BME280;51805;49.012;12.104;2023-06-14T03:45:10;97400.75;;;23.19;32.34
65227;BME280;51805;49.012;12.104;2023-06-14T03:47:35;97419.50;;;23.16;32.66
65227;BME280;51805;49.012;12.104;2023-06-14T03:50:04;97418.91;;;23.19;32.43
65227;BME280;51805;49.012;12.104;2023-06-14T03:52:30;97416.72;;;23.21;32.49
65227;BME280;51805;49.012;12.104;2023-06-14T03:54:55;97420.69;;;23.28;32.40
65227;BME280;51805;49.012;12.104;2023-06-14T03:57:21;97424.69;;;23.12;32.55
65227;BME280;51805;49.012;12.104;2023-06-14T03:59:46;97430.63;;;23.14;32.48
65227;BME280;51805;49.012;12.104;2023-06-14T04:02:12;97432.97;;;23.21;32.37
65227;BME280;51805;49.012;12.104;2023-06-14T04:04:37;97426.50;;;22.84;33.01
65227;BME280;51805;49.012;12.104;2023-06-14T04:07:02;97436.09;;;22.77;33.30
65227;BME280;51805;49.012;12.104;2023-06-14T04:09:28;97433.28;;;22.21;34.35
65227;BME280;51805;49.012;12.104;2023-06-14T04:11:53;97438.34;;;22.51;33.84
65227;BME280;51805;49.012;12.104;2023-06-14T04:14:19;97442.81;;;22.79;33.27
65227;BME280;51805;49.012;12.104;2023-06-14T04:16:46;97440.84;;;23.03;32.85
65227;BME280;51805;49.012;12.104;2023-06-14T04:19:11;97441.47;;;23.14;32.75
65227;BME280;51805;49.012;12.104;2023-06-14T04:21:36;97437.94;;;23.32;32.91
65227;BME280;51805;49.012;12.104;2023-06-14T04:24:02;97448.22;;;23.17;33.69
65227;BME280;51805;49.012;12.104;2023-06-14T04:26:27;97444.13;;;23.19;33.38
65227;BME280;51805;49.012;12.104;2023-06-14T04:28:53;97438.09;;;22.71;34.16
65227;BME280;51805;49.012;12.104;2023-06-14T04:31:18;97445.50;;;22.98;33.95
65227;BME280;51805;49.012;12.104;2023-06-14T04:33:43;97449.50;;;23.06;34.30
65227;BME280;51805;49.012;12.104;2023-06-14T04:36:10;97457.69;;;23.00;34.27
65227;BME280;51805;49.012;12.104;2023-06-14T04:38:35;97459.34;;;22.96;34.32
65227;BME280;51805;49.012;12.104;2023-06-14T04:41:00;97459.56;;;23.19;33.86
65227;BME280;51805;49.012;12.104;2023-06-14T04:43:26;97458.03;;;23.31;33.48
65227;BME280;51805;49.012;12.104;2023-06-14T04:45:51;97461.47;;;23.37;33.73
65227;BME280;51805;49.012;12.104;2023-06-14T04:48:17;97455.63;;;23.30;33.78
65227;BME280;51805;49.012;12.104;2023-06-14T04:50:42;97459.75;;;23.27;33.81
65227;BME280;51805;49.012;12.104;2023-06-14T04:53:07;97467.56;;;23.10;34.19
65227;BME280;51805;49.012;12.104;2023-06-14T04:55:32;97459.22;;;22.88;34.38
65227;BME280;51805;49.012;12.104;2023-06-14T04:57:58;97453.81;;;23.07;34.13
65227;BME280;51805;49.012;12.104;2023-06-14T05:00:23;97459.88;;;23.36;33.28
65227;BME280;51805;49.012;12.104;2023-06-14T05:02:48;97451.50;;;23.14;33.70
65227;BME280;51805;49.012;12.104;2023-06-14T05:05:14;97434.13;;;22.82;34.22
65227;BME280;51805;49.012;12.104;2023-06-14T05:07:39;97459.50;;;23.24;33.83
65227;BME280;51805;49.012;12.104;2023-06-14T05:10:05;97459.50;;;23.24;33.71
65227;BME280;51805;49.012;12.104;2023-06-14T05:12:30;97460.59;;;23.23;33.79
65227;BME280;51805;49.012;12.104;2023-06-14T05:14:56;97466.22;;;23.45;33.57
65227;BME280;51805;49.012;12.104;2023-06-14T05:17:21;97462.75;;;23.58;33.38
65227;BME280;51805;49.012;12.104;2023-06-14T05:19:46;97460.63;;;23.55;33.45
65227;BME280;51805;49.012;12.104;2023-06-14T05:22:12;97468.19;;;23.58;33.34
65227;BME280;51805;49.012;12.104;2023-06-14T05:24:37;97456.59;;;23.52;33.37
65227;BME280;51805;49.012;12.104;2023-06-14T05:27:02;97450.41;;;23.65;33.24
65227;BME280;51805;49.012;12.104;2023-06-14T05:29:28;97463.47;;;23.77;33.22
65227;BME280;51805;49.012;12.104;2023-06-14T05:31:53;97473.41;;;23.36;33.90
65227;BME280;51805;49.012;12.104;2023-06-14T05:34:18;97474.94;;;23.23;33.99
65227;BME280;51805;49.012;12.104;2023-06-14T05:36:43;97460.53;;;23.28;34.08
65227;BME280;51805;49.012;12.104;2023-06-14T05:39:09;97477.13;;;23.40;33.92
65227;BME280;51805;49.012;12.104;2023-06-14T05:41:34;97475.84;;;23.37;34.00
65227;BME280;51805;49.012;12.104;2023-06-14T05:43:59;97471.31;;;23.33;34.17
65227;BME280;51805;49.012;12.104;2023-06-14T05:46:25;97470.97;;;23.53;33.82
65227;BME280;51805;49.012;12.104;2023-06-14T05:48:51;97468.00;;;23.36;33.90
65227;BME280;51805;49.012;12.104;2023-06-14T05:51:16;97477.91;;;23.59;34.06
65227;BME280;51805;49.012;12.104;2023-06-14T05:53:41;97477.84;;;23.64;33.72
65227;BME280;51805;49.012;12.104;2023-06-14T05:56:07;97486.06;;;23.72;33.45
65227;BME280;51805;49.012;12.104;2023-06-14T05:58:32;97488.34;;;23.52;33.96
65227;BME280;51805;49.012;12.104;2023-06-14T06:00:57;97494.38;;;23.49;34.20
65227;BME280;51805;49.012;12.104;2023-06-14T06:03:23;97475.97;;;23.46;34.25
65227;BME280;51805;49.012;12.104;2023-06-14T06:05:48;97478.34;;;23.66;33.82
65227;BME280;51805;49.012;12.104;2023-06-14T06:08:13;97471.22;;;23.70;33.58
65227;BME280;51805;49.012;12.104;2023-06-14T06:10:39;97485.81;;;23.55;33.90
65227;BME280;51805;49.012;12.104;2023-06-14T06:13:04;97493.47;;;23.53;34.15
65227;BME280;51805;49.012;12.104;2023-06-14T06:15:29;97494.78;;;23.56;34.01
65227;BME280;51805;49.012;12.104;2023-06-14T06:17:55;97489.78;;;23.63;33.59
65227;BME280;51805;49.012;12.104;2023-06-14T06:20:20;97469.78;;;23.59;33.81
65227;BME280;51805;49.012;12.104;2023-06-14T06:22:45;97479.78;;;23.45;33.77
65227;BME280;51805;49.012;12.104;2023-06-14T06:25:10;97489.88;;;23.58;33.38
65227;BME280;51805;49.012;12.104;2023-06-14T06:27:36;97497.03;;;23.67;33.44
65227;BME280;51805;49.012;12.104;2023-06-14T06:30:01;97506.81;;;23.82;33.50
65227;BME280;51805;49.012;12.104;2023-06-14T06:32:26;97493.25;;;23.50;33.62
65227;BME280;51805;49.012;12.104;2023-06-14T06:34:51;97488.97;;;23.30;33.89
65227;BME280;51805;49.012;12.104;2023-06-14T06:37:17;97496.78;;;23.50;33.90
65227;BME280;51805;49.012;12.104;2023-06-14T06:39:42;97478.22;;;23.57;33.55
65227;BME280;51805;49.012;12.104;2023-06-14T06:42:07;97510.63;;;23.81;33.50
65227;BME280;51805;49.012;12.104;2023-06-14T06:44:33;97511.22;;;23.78;33.37
65227;BME280;51805;49.012;12.104;2023-06-14T06:46:58;97497.50;;;23.56;33.69
65227;BME280;51805;49.012;12.104;2023-06-14T06:49:23;97507.53;;;23.87;33.34
65227;BME280;51805;49.012;12.104;2023-06-14T06:52:05;97518.59;;;23.91;33.26
65227;BME280;51805;49.012;12.104;2023-06-14T06:54:31;97510.56;;;23.86;33.37
65227;BME280;51805;49.012;12.104;2023-06-14T06:56:57;97523.53;;;23.89;33.44
65227;BME280;51805;49.012;12.104;2023-06-14T06:59:22;97501.97;;;23.79;33.51
65227;BME280;51805;49.012;12.104;2023-06-14T07:01:48;97522.31;;;23.95;33.53
65227;BME280;51805;49.012;12.104;2023-06-14T07:04:13;97512.25;;;23.82;33.43
65227;BME280;51805;49.012;12.104;2023-06-14T07:06:39;97526.66;;;23.64;33.95
65227;BME280;51805;49.012;12.104;2023-06-14T07:09:04;97525.28;;;23.80;34.00
65227;BME280;51805;49.012;12.104;2023-06-14T07:11:29;97501.47;;;23.77;33.67
65227;BME280;51805;49.012;12.104;2023-06-14T07:13:55;97512.25;;;23.82;33.36
65227;BME280;51805;49.012;12.104;2023-06-14T07:16:20;97503.25;;;24.00;33.47
65227;BME280;51805;49.012;12.104;2023-06-14T07:18:45;97532.13;;;24.23;33.07
65227;BME280;51805;49.012;12.104;2023-06-14T07:21:10;97532.47;;;24.35;33.03
65227;BME280;51805;49.012;12.104;2023-06-14T07:23:36;97539.50;;;24.36;33.21
65227;BME280;51805;49.012;12.104;2023-06-14T07:26:01;97514.53;;;24.20;33.23
65227;BME280;51805;49.012;12.104;2023-06-14T07:28:26;97532.56;;;24.30;32.21
65227;BME280;51805;49.012;12.104;2023-06-14T07:30:52;97526.44;;;24.24;32.31
65227;BME280;51805;49.012;12.104;2023-06-14T07:33:17;97528.72;;;24.31;32.30
65227;BME280;51805;49.012;12.104;2023-06-14T07:35:42;97545.31;;;24.43;31.99
65227;BME280;51805;49.012;12.104;2023-06-14T07:38:07;97548.16;;;24.51;32.09
65227;BME280;51805;49.012;12.104;2023-06-14T07:40:33;97545.53;;;24.60;31.44
65227;BME280;51805;49.012;12.104;2023-06-14T07:42:58;97553.97;;;24.58;31.06
65227;BME280;51805;49.012;12.104;2023-06-14T07:45:23;97536.47;;;24.51;31.65
65227;BME280;51805;49.012;12.104;2023-06-14T07:47:49;97553.97;;;24.58;30.88
65227;BME280;51805;49.012;12.104;2023-06-14T07:50:14;97551.38;;;24.53;31.41
65227;BME280;51805;49.012;12.104;2023-06-14T07:52:39;97553.69;;;24.60;31.14
65227;BME280;51805;49.012;12.104;2023-06-14T07:55:05;97545.75;;;24.50;31.28
65227;BME280;51805;49.012;12.104;2023-06-14T07:57:30;97534.44;;;24.43;30.86
65227;BME280;51805;49.012;12.104;2023-06-14T07:59:56;97536.47;;;24.37;30.45
65227;BME280;51805;49.012;12.104;2023-06-14T08:02:21;97561.75;;;24.51;30.87
65227;BME280;51805;49.012;12.104;2023-06-14T08:04:46;97542.50;;;24.48;30.55
65227;BME280;51805;49.012;12.104;2023-06-14T08:07:12;97543.63;;;24.47;30.46
65227;BME280;51805;49.012;12.104;2023-06-14T08:09:37;97559.41;;;24.58;30.81
65227;BME280;51805;49.012;12.104;2023-06-14T08:12:02;97552.06;;;24.59;31.09
65227;BME280;51805;49.012;12.104;2023-06-14T08:14:28;97557.22;;;24.60;30.42
65227;BME280;51805;49.012;12.104;2023-06-14T08:16:53;97548.97;;;24.52;30.69
65227;BME280;51805;49.012;12.104;2023-06-14T08:19:18;97555.59;;;24.59;30.92
65227;BME280;51805;49.012;12.104;2023-06-14T08:21:44;97567.16;;;24.65;30.25
65227;BME280;51805;49.012;12.104;2023-06-14T08:24:11;97551.78;;;24.47;30.58
65227;BME280;51805;49.012;12.104;2023-06-14T08:26:36;97567.09;;;24.56;30.37
65227;BME280;51805;49.012;12.104;2023-06-14T08:29:01;97565.44;;;24.42;30.99
65227;BME280;51805;49.012;12.104;2023-06-14T08:31:26;97542.03;;;24.46;31.43
65227;BME280;51805;49.012;12.104;2023-06-14T08:33:52;97562.44;;;24.57;30.61
65227;BME280;51805;49.012;12.104;2023-06-14T08:36:17;97547.94;;;24.48;30.40
65227;BME280;51805;49.012;12.104;2023-06-14T08:38:42;97569.31;;;24.68;30.51
65227;BME280;51805;49.012;12.104;2023-06-14T08:41:07;97574.75;;;24.68;30.67
65227;BME280;51805;49.012;12.104;2023-06-14T08:43:36;97546.72;;;24.54;30.31
65227;BME280;51805;49.012;12.104;2023-06-14T08:46:03;97569.72;;;24.75;30.97
65227;BME280;51805;49.012;12.104;2023-06-14T08:48:29;97556.22;;;24.70;30.74
65227;BME280;51805;49.012;12.104;2023-06-14T08:50:56;97577.97;;;24.84;30.77
65227;BME280;51805;49.012;12.104;2023-06-14T08:53:22;97551.00;;;24.74;30.93
65227;BME280;51805;49.012;12.104;2023-06-14T08:55:47;97553.00;;;24.68;30.15
65227;BME280;51805;49.012;12.104;2023-06-14T08:58:13;97565.50;;;24.69;30.36
65227;BME280;51805;49.012;12.104;2023-06-14T09:00:38;97580.00;;;24.78;30.37
65227;BME280;51805;49.012;12.104;2023-06-14T09:03:04;97556.28;;;24.65;30.33
65227;BME280;51805;49.012;12.104;2023-06-14T09:05:29;97574.34;;;24.88;30.31
65227;BME280;51805;49.012;12.104;2023-06-14T09:07:54;97568.09;;;24.88;30.69
65227;BME280;51805;49.012;12.104;2023-06-14T09:10:22;97540.13;;;24.74;30.43
65227;BME280;51805;49.012;12.104;2023-06-14T09:12:47;97583.09;;;24.85;29.96
65227;BME280;51805;49.012;12.104;2023-06-14T09:15:12;97587.91;;;24.88;30.07
65227;BME280;51805;49.012;12.104;2023-06-14T09:17:38;97588.31;;;24.82;29.82
65227;BME280;51805;49.012;12.104;2023-06-14T09:20:08;97583.78;;;24.77;30.16
65227;BME280;51805;49.012;12.104;2023-06-14T09:22:33;97583.31;;;24.89;30.55
65227;BME280;51805;49.012;12.104;2023-06-14T09:24:59;97587.81;;;24.93;30.41
65227;BME280;51805;49.012;12.104;2023-06-14T09:27:28;97578.38;;;24.77;29.80
65227;BME280;51805;49.012;12.104;2023-06-14T09:29:54;97588.25;;;24.73;29.96
65227;BME280;51805;49.012;12.104;2023-06-14T09:32:22;97569.69;;;24.61;29.77
65227;BME280;51805;49.012;12.104;2023-06-14T09:34:48;97589.44;;;24.81;30.65
65227;BME280;51805;49.012;12.104;2023-06-14T09:37:26;97552.69;;;24.56;30.16
65227;BME280;51805;49.012;12.104;2023-06-14T09:39:51;97585.00;;;24.71;30.61
65227;BME280;51805;49.012;12.104;2023-06-14T09:42:17;97579.19;;;24.78;30.61
65227;BME280;51805;49.012;12.104;2023-06-14T09:44:44;97572.75;;;24.74;30.08
65227;BME280;51805;49.012;12.104;2023-06-14T09:47:09;97583.78;;;24.77;30.34
65227;BME280;51805;49.012;12.104;2023-06-14T09:49:35;97578.38;;;24.77;30.34
65227;BME280;51805;49.012;12.104;2023-06-14T09:52:03;97589.66;;;24.84;31.00
65227;BME280;51805;49.012;12.104;2023-06-14T09:54:29;97591.66;;;24.92;30.35
65227;BME280;51805;49.012;12.104;2023-06-14T09:56:55;97590.03;;;24.91;30.16
65227;BME280;51805;49.012;12.104;2023-06-14T09:59:22;97538.59;;;24.54;30.38
65227;BME280;51805;49.012;12.104;2023-06-14T10:01:50;97586.03;;;24.89;30.66
65227;BME280;51805;49.012;12.104;2023-06-14T10:04:18;97587.22;;;24.96;30.70
65227;BME280;51805;49.012;12.104;2023-06-14T10:06:45;97574.53;;;24.92;30.53
65227;BME280;51805;49.012;12.104;2023-06-14T10:09:11;97591.75;;;25.01;30.45
65227;BME280;51805;49.012;12.104;2023-06-14T10:11:38;97569.81;;;24.84;30.65
65227;BME280;51805;49.012;12.104;2023-06-14T10:14:05;97574.53;;;24.92;30.51
65227;BME280;51805;49.012;12.104;2023-06-14T10:16:34;97577.88;;;24.89;30.61
65227;BME280;51805;49.012;12.104;2023-06-14T10:19:09;97590.94;;;25.00;30.41
65227;BME280;51805;49.012;12.104;2023-06-14T10:21:46;97592.25;;;25.03;30.68
65227;BME280;51805;49.012;12.104;2023-06-14T10:24:17;97570.91;;;24.96;30.58
65227;BME280;51805;49.012;12.104;2023-06-14T10:26:54;97570.69;;;24.93;30.72
65227;BME280;51805;49.012;12.104;2023-06-14T10:29:21;97582.91;;;24.95;30.08
65227;BME280;51805;49.012;12.104;2023-06-14T10:31:56;97576.94;;;24.93;30.06
65227;BME280;51805;49.012;12.104;2023-06-14T10:34:26;97587.22;;;24.96;30.09
65227;BME280;51805;49.012;12.104;2023-06-14T10:37:04;97591.84;;;24.96;30.19
65227;BME280;51805;49.012;12.104;2023-06-14T10:39:31;97583.00;;;24.90;29.86
65227;BME280;51805;49.012;12.104;2023-06-14T10:41:57;97582.47;;;24.88;29.86
65227;BME280;51805;49.012;12.104;2023-06-14T10:49:16;97563.56;;;24.83;29.82
65227;BME280;51805;49.012;12.104;2023-06-14T10:51:42;97579.78;;;24.88;29.99
65227;BME280;51805;49.012;12.104;2023-06-14T10:54:14;97569.81;;;24.84;29.68
65227;BME280;51805;49.012;12.104;2023-06-14T10:56:51;97580.59;;;24.75;29.62
65227;BME280;51805;49.012;12.104;2023-06-14T10:59:17;97571.91;;;24.87;29.98
65227;BME280;51805;49.012;12.104;2023-06-14T11:02:06;97578.56;;;24.94;30.04
65227;BME280;51805;49.012;12.104;2023-06-14T11:04:48;97568.28;;;24.91;30.28
65227;BME280;51805;49.012;12.104;2023-06-14T11:07:35;97572.50;;;24.97;30.29
65227;BME280;51805;49.012;12.104;2023-06-14T11:12:50;97551.50;;;24.89;29.77
65227;BME280;51805;49.012;12.104;2023-06-14T11:15:19;97557.31;;;24.96;30.39
65227;BME280;51805;49.012;12.104;2023-06-14T11:17:52;97557.81;;;24.98;30.52
65227;BME280;51805;49.012;12.104;2023-06-14T11:20:17;97561.03;;;25.00;30.16
65227;BME280;51805;49.012;12.104;2023-06-14T11:22:43;97565.84;;;25.03;30.02
65227;BME280;51805;49.012;12.104;2023-06-14T11:25:09;97564.25;;;25.02;29.91
65227;BME280;51805;49.012;12.104;2023-06-14T11:27:34;97564.16;;;25.07;29.84
65227;BME280;51805;49.012;12.104;2023-06-14T11:30:00;97549.84;;;25.02;29.31
65227;BME280;51805;49.012;12.104;2023-06-14T11:32:25;97564.25;;;25.02;29.41
65227;BME280;51805;49.012;12.104;2023-06-14T11:34:50;97559.63;;;25.03;28.62
65227;BME280;51805;49.012;12.104;2023-06-14T11:37:15;97545.00;;;24.99;29.29
65227;BME280;51805;49.012;12.104;2023-06-14T11:39:44;97562.50;;;25.06;29.03
65227;BME280;51805;49.012;12.104;2023-06-14T11:42:14;97550.97;;;25.01;29.10
65227;BME280;51805;49.012;12.104;2023-06-14T11:44:39;97556.41;;;25.01;28.77
65227;BME280;51805;49.012;12.104;2023-06-14T11:47:05;97555.78;;;25.04;28.89
65227;BME280;51805;49.012;12.104;2023-06-14T11:49:35;97544.59;;;25.05;29.53
65227;BME280;51805;49.012;12.104;2023-06-14T11:52:00;97534.84;;;25.04;29.20
65227;BME280;51805;49.012;12.104;2023-06-14T11:54:26;97546.50;;;25.18;29.41
65227;BME280;51805;49.012;12.104;2023-06-14T11:56:51;97541.06;;;25.18;29.55
65227;BME280;51805;49.012;12.104;2023-06-14T11:59:17;97533.50;;;25.15;29.75
65227;BME280;51805;49.012;12.104;2023-06-14T12:01:43;97550.41;;;25.26;29.68
65227;BME280;51805;49.012;12.104;2023-06-14T12:04:08;97527.78;;;25.03;29.49
65227;BME280;51805;49.012;12.104;2023-06-14T12:06:34;97528.19;;;25.10;29.65
65227;BME280;51805;49.012;12.104;2023-06-14T12:08:59;97544.41;;;25.15;29.63
65227;BME280;51805;49.012;12.104;2023-06-14T12:11:31;97556.38;;;25.14;29.81
65227;BME280;51805;49.012;12.104;2023-06-14T12:13:57;97555.56;;;25.14;29.81
65227;BME280;51805;49.012;12.104;2023-06-14T12:16:30;97548.50;;;25.13;29.89
65227;BME280;51805;49.012;12.104;2023-06-14T12:18:55;97552.16;;;25.08;29.71
65227;BME280;51805;49.012;12.104;2023-06-14T12:21:22;97546.94;;;24.98;29.69
65227;BME280;51805;49.012;12.104;2023-06-14T12:23:49;97548.94;;;24.93;29.63
65227;BME280;51805;49.012;12.104;2023-06-14T12:26:18;97554.38;;;24.93;29.83
65227;BME280;51805;49.012;12.104;2023-06-14T12:28:45;97551.97;;;24.91;29.86
65227;BME280;51805;49.012;12.104;2023-06-14T12:31:12;97552.09;;;24.86;29.89
65227;BME280;51805;49.012;12.104;2023-06-14T12:33:37;97539.31;;;24.73;30.11
65227;BME280;51805;49.012;12.104;2023-06-14T12:36:03;97531.38;;;24.77;29.75
65227;BME280;51805;49.012;12.104;2023-06-14T12:38:29;97550.06;;;24.92;30.02
65227;BME280;51805;49.012;12.104;2023-06-14T12:40:54;97556.94;;;24.89;30.00
65227;BME280;51805;49.012;12.104;2023-06-14T12:43:19;97553.00;;;24.95;30.00
65227;BME280;51805;49.012;12.104;2023-06-14T12:45:45;97541.91;;;24.92;30.10
65227;BME280;51805;49.012;12.104;2023-06-14T12:48:10;97540.19;;;24.96;30.17
65227;BME280;51805;49.012;12.104;2023-06-14T12:50:35;97556.59;;;25.04;29.99
65227;BME280;51805;49.012;12.104;2023-06-14T12:53:00;97556.59;;;25.04;29.98
65227;BME280;51805;49.012;12.104;2023-06-14T12:55:26;97558.19;;;25.05;29.93